Skip Navigation Links
NOAA logo - Click to go to the NOAA homepage
NOAA's National Weather Service
Alaska Aviation Weather Unit
  NWS logo - Click to go to the NWS homepage
Left Navbar Graphic     23 AKDT = 07 GMT

   
NOAA is celebrating 200 years of science, service, and stewardship. Visit the NOAA 200th celebration Web site to learn more.
USA.gov is the U.S. Government's official Web portal to all Federal, state and local government Web resources and services.
Facebook
NWS on Facebook

AAWU Home :: Display TAF Add Bookmark
TAF PAHO 240525Z 2406/2506 07009KT P6SM -SHRA BKN050
     FM241100 06003KT P6SM -RA OVC035=
PAHO 240153Z 26003KT 10SM BKN055 OVC080 11/02 A2965 RMK SLP040
     T01110022 VIA AUTODIAL=

PAHO 240253Z 00000KT 10SM FEW055 OVC070 11/02 A2964 RMK SLP038
     T01060022 56008 VIA AUTODIAL=

PAHO 240353Z 00000KT 10SM FEW075 BKN090 BKN110 10/02 A2964 RMK
     SLP035 T01000022 VIA AUTODIAL=

PAHO 240453Z 00000KT 10SM OVC046 10/02 A2964 RMK SLP036 T01000022
     VIA AUTODIAL=

METAR PAHO 240553Z AUTO 00000KT 10SM OVC047 09/02 A2964 RMK SLP035
 T00940022 10117 20094 56003 TSNO VIA AUTODIAL=

METAR PAHO 240653Z AUTO 00000KT 10SM SCT048 BKN060 OVC070 08/02 A2964
     RMK SLP036 T00830017 TSNO VIA AUTODIAL=


NOAA's National Weather Service
Alaska Aviation Weather Unit
6930 Sand Lake Road
Anchorage, AK 99502-1845
Disclaimer
Credits
Glossary
Privacy Policy
About Us
Career Opportunities
Contact AAWU Internet Services Site last modified: April, 17th 2012